sensor_id;sensor_type;location;lat;lon;timestamp;P1;durP1;ratioP1;P2;durP2;ratioP2
20306;SDS011;10312;52.434;13.206;2022-07-29T00:02:24;6.90;;;2.00;;
20306;SDS011;10312;52.434;13.206;2022-07-29T00:04:51;3.63;;;1.52;;
20306;SDS011;10312;52.434;13.206;2022-07-29T00:07:18;3.72;;;1.73;;
20306;SDS011;10312;52.434;13.206;2022-07-29T00:09:44;5.20;;;1.42;;
20306;SDS011;10312;52.434;13.206;2022-07-29T00:12:21;5.95;;;1.50;;
20306;SDS011;10312;52.434;13.206;2022-07-29T00:14:55;3.20;;;1.70;;
20306;SDS011;10312;52.434;13.206;2022-07-29T00:17:22;7.40;;;2.00;;
20306;SDS011;10312;52.434;13.206;2022-07-29T00:19:50;7.28;;;2.40;;
20306;SDS011;10312;52.434;13.206;2022-07-29T00:22:17;12.05;;;2.50;;
20306;SDS011;10312;52.434;13.206;2022-07-29T00:24:48;7.50;;;2.10;;
20306;SDS011;10312;52.434;13.206;2022-07-29T00:27:15;6.70;;;2.30;;
20306;SDS011;10312;52.434;13.206;2022-07-29T00:29:43;8.05;;;2.40;;
20306;SDS011;10312;52.434;13.206;2022-07-29T00:32:10;6.15;;;2.10;;
20306;SDS011;10312;52.434;13.206;2022-07-29T00:34:36;4.47;;;1.73;;
20306;SDS011;10312;52.434;13.206;2022-07-29T00:37:22;3.25;;;1.83;;
20306;SDS011;10312;52.434;13.206;2022-07-29T00:39:49;7.45;;;2.33;;
20306;SDS011;10312;52.434;13.206;2022-07-29T00:42:15;5.32;;;2.10;;
20306;SDS011;10312;52.434;13.206;2022-07-29T00:44:43;7.57;;;2.70;;
20306;SDS011;10312;52.434;13.206;2022-07-29T00:47:10;8.25;;;2.30;;
20306;SDS011;10312;52.434;13.206;2022-07-29T00:49:38;5.25;;;2.42;;
20306;SDS011;10312;52.434;13.206;2022-07-29T00:52:07;6.53;;;2.65;;
20306;SDS011;10312;52.434;13.206;2022-07-29T00:54:39;9.07;;;3.08;;
20306;SDS011;10312;52.434;13.206;2022-07-29T00:57:10;4.55;;;2.22;;
20306;SDS011;10312;52.434;13.206;2022-07-29T00:59:37;4.60;;;2.30;;
20306;SDS011;10312;52.434;13.206;2022-07-29T01:02:04;7.88;;;2.50;;
20306;SDS011;10312;52.434;13.206;2022-07-29T01:04:31;4.78;;;2.28;;
20306;SDS011;10312;52.434;13.206;2022-07-29T01:06:59;5.22;;;2.22;;
20306;SDS011;10312;52.434;13.206;2022-07-29T01:09:27;6.10;;;2.50;;
20306;SDS011;10312;52.434;13.206;2022-07-29T01:12:15;5.28;;;2.20;;
20306;SDS011;10312;52.434;13.206;2022-07-29T01:14:43;6.50;;;2.42;;
20306;SDS011;10312;52.434;13.206;2022-07-29T01:17:16;9.82;;;3.13;;
20306;SDS011;10312;52.434;13.206;2022-07-29T01:27:51;4.38;;;2.40;;
20306;SDS011;10312;52.434;13.206;2022-07-29T01:30:22;6.85;;;3.17;;
20306;SDS011;10312;52.434;13.206;2022-07-29T01:32:54;5.85;;;2.67;;
20306;SDS011;10312;52.434;13.206;2022-07-29T01:35:23;6.20;;;3.15;;
20306;SDS011;10312;52.434;13.206;2022-07-29T01:37:55;4.47;;;2.72;;
20306;SDS011;10312;52.434;13.206;2022-07-29T01:40:34;7.68;;;2.80;;
20306;SDS011;10312;52.434;13.206;2022-07-29T01:43:09;4.82;;;2.70;;
20306;SDS011;10312;52.434;13.206;2022-07-29T01:48:27;7.30;;;3.13;;
20306;SDS011;10312;52.434;13.206;2022-07-29T01:53:50;7.30;;;2.72;;
20306;SDS011;10312;52.434;13.206;2022-07-29T01:56:21;8.30;;;2.75;;
20306;SDS011;10312;52.434;13.206;2022-07-29T01:58:49;5.40;;;2.70;;
20306;SDS011;10312;52.434;13.206;2022-07-29T02:01:18;5.35;;;2.83;;
20306;SDS011;10312;52.434;13.206;2022-07-29T02:03:46;6.07;;;2.75;;
20306;SDS011;10312;52.434;13.206;2022-07-29T02:06:16;9.05;;;2.92;;
20306;SDS011;10312;52.434;13.206;2022-07-29T02:08:45;6.75;;;2.92;;
20306;SDS011;10312;52.434;13.206;2022-07-29T02:11:13;7.53;;;2.80;;
20306;SDS011;10312;52.434;13.206;2022-07-29T02:13:40;7.78;;;2.85;;
20306;SDS011;10312;52.434;13.206;2022-07-29T02:16:07;4.45;;;2.50;;
20306;SDS011;10312;52.434;13.206;2022-07-29T02:18:36;6.63;;;2.80;;
20306;SDS011;10312;52.434;13.206;2022-07-29T02:21:03;6.00;;;2.33;;
20306;SDS011;10312;52.434;13.206;2022-07-29T02:23:40;7.40;;;2.78;;
20306;SDS011;10312;52.434;13.206;2022-07-29T02:26:17;9.27;;;2.97;;
20306;SDS011;10312;52.434;13.206;2022-07-29T02:28:44;6.82;;;2.75;;
20306;SDS011;10312;52.434;13.206;2022-07-29T02:31:14;7.85;;;3.00;;
20306;SDS011;10312;52.434;13.206;2022-07-29T02:33:43;4.95;;;2.75;;
20306;SDS011;10312;52.434;13.206;2022-07-29T02:36:10;4.43;;;2.60;;
20306;SDS011;10312;52.434;13.206;2022-07-29T02:38:37;7.03;;;2.83;;
20306;SDS011;10312;52.434;13.206;2022-07-29T02:41:18;5.20;;;2.55;;
20306;SDS011;10312;52.434;13.206;2022-07-29T02:43:47;4.20;;;2.30;;
20306;SDS011;10312;52.434;13.206;2022-07-29T02:46:16;7.50;;;3.03;;
20306;SDS011;10312;52.434;13.206;2022-07-29T02:51:32;4.70;;;2.60;;
20306;SDS011;10312;52.434;13.206;2022-07-29T02:54:10;7.60;;;3.10;;
20306;SDS011;10312;52.434;13.206;2022-07-29T02:56:38;7.32;;;3.05;;
20306;SDS011;10312;52.434;13.206;2022-07-29T02:59:08;5.68;;;2.75;;
20306;SDS011;10312;52.434;13.206;2022-07-29T03:01:36;4.30;;;2.45;;
20306;SDS011;10312;52.434;13.206;2022-07-29T03:04:05;7.32;;;2.78;;
20306;SDS011;10312;52.434;13.206;2022-07-29T03:06:33;5.82;;;3.13;;
20306;SDS011;10312;52.434;13.206;2022-07-29T03:09:04;5.93;;;2.90;;
20306;SDS011;10312;52.434;13.206;2022-07-29T03:11:39;6.05;;;2.97;;
20306;SDS011;10312;52.434;13.206;2022-07-29T03:14:19;6.47;;;3.08;;
20306;SDS011;10312;52.434;13.206;2022-07-29T03:16:47;5.57;;;2.58;;
20306;SDS011;10312;52.434;13.206;2022-07-29T03:19:14;4.78;;;2.20;;
20306;SDS011;10312;52.434;13.206;2022-07-29T03:21:41;3.95;;;2.55;;
20306;SDS011;10312;52.434;13.206;2022-07-29T03:24:08;5.15;;;2.70;;
20306;SDS011;10312;52.434;13.206;2022-07-29T03:26:37;5.65;;;2.67;;
20306;SDS011;10312;52.434;13.206;2022-07-29T03:29:04;5.55;;;2.63;;
20306;SDS011;10312;52.434;13.206;2022-07-29T03:31:32;6.38;;;2.90;;
20306;SDS011;10312;52.434;13.206;2022-07-29T03:33:59;5.28;;;2.80;;
20306;SDS011;10312;52.434;13.206;2022-07-29T03:36:26;9.30;;;3.17;;
20306;SDS011;10312;52.434;13.206;2022-07-29T03:38:53;5.63;;;2.90;;
20306;SDS011;10312;52.434;13.206;2022-07-29T03:41:20;8.10;;;2.97;;
20306;SDS011;10312;52.434;13.206;2022-07-29T03:43:48;5.03;;;2.42;;
20306;SDS011;10312;52.434;13.206;2022-07-29T03:46:16;5.18;;;2.45;;
20306;SDS011;10312;52.434;13.206;2022-07-29T03:48:46;6.20;;;2.47;;
20306;SDS011;10312;52.434;13.206;2022-07-29T03:51:15;5.25;;;2.78;;
20306;SDS011;10312;52.434;13.206;2022-07-29T03:53:42;5.00;;;2.60;;
20306;SDS011;10312;52.434;13.206;2022-07-29T03:56:08;5.85;;;2.47;;
20306;SDS011;10312;52.434;13.206;2022-07-29T03:58:36;6.30;;;2.58;;
20306;SDS011;10312;52.434;13.206;2022-07-29T04:01:04;5.90;;;2.38;;
20306;SDS011;10312;52.434;13.206;2022-07-29T04:03:31;5.85;;;2.20;;
20306;SDS011;10312;52.434;13.206;2022-07-29T04:05:58;4.47;;;2.75;;
20306;SDS011;10312;52.434;13.206;2022-07-29T04:08:31;5.43;;;2.38;;
20306;SDS011;10312;52.434;13.206;2022-07-29T04:10:59;7.70;;;2.42;;
20306;SDS011;10312;52.434;13.206;2022-07-29T04:13:26;5.63;;;2.83;;
20306;SDS011;10312;52.434;13.206;2022-07-29T04:15:52;7.32;;;2.70;;
20306;SDS011;10312;52.434;13.206;2022-07-29T04:18:19;4.10;;;2.00;;
20306;SDS011;10312;52.434;13.206;2022-07-29T04:20:46;7.90;;;2.38;;
20306;SDS011;10312;52.434;13.206;2022-07-29T04:23:13;5.28;;;2.83;;
20306;SDS011;10312;52.434;13.206;2022-07-29T04:25:40;6.20;;;2.97;;
20306;SDS011;10312;52.434;13.206;2022-07-29T04:28:07;4.82;;;1.90;;
20306;SDS011;10312;52.434;13.206;2022-07-29T04:30:35;4.93;;;2.40;;
20306;SDS011;10312;52.434;13.206;2022-07-29T04:33:03;6.53;;;2.13;;
20306;SDS011;10312;52.434;13.206;2022-07-29T04:35:38;4.65;;;2.20;;
20306;SDS011;10312;52.434;13.206;2022-07-29T04:38:15;6.63;;;2.15;;
20306;SDS011;10312;52.434;13.206;2022-07-29T04:40:42;5.35;;;2.45;;
20306;SDS011;10312;52.434;13.206;2022-07-29T04:43:09;7.78;;;2.65;;
20306;SDS011;10312;52.434;13.206;2022-07-29T04:45:38;9.63;;;2.97;;
20306;SDS011;10312;52.434;13.206;2022-07-29T04:48:05;3.05;;;1.98;;
20306;SDS011;10312;52.434;13.206;2022-07-29T04:50:32;7.38;;;2.10;;
20306;SDS011;10312;52.434;13.206;2022-07-29T04:52:58;8.98;;;2.25;;
20306;SDS011;10312;52.434;13.206;2022-07-29T04:55:25;3.65;;;1.77;;
20306;SDS011;10312;52.434;13.206;2022-07-29T04:57:52;7.45;;;2.40;;
20306;SDS011;10312;52.434;13.206;2022-07-29T05:00:19;6.60;;;2.45;;
20306;SDS011;10312;52.434;13.206;2022-07-29T05:02:46;4.45;;;2.00;;
20306;SDS011;10312;52.434;13.206;2022-07-29T05:05:13;5.38;;;2.40;;
20306;SDS011;10312;52.434;13.206;2022-07-29T05:07:40;6.68;;;2.38;;
20306;SDS011;10312;52.434;13.206;2022-07-29T05:10:07;8.55;;;2.00;;
20306;SDS011;10312;52.434;13.206;2022-07-29T05:12:34;7.53;;;2.50;;
20306;SDS011;10312;52.434;13.206;2022-07-29T05:15:01;9.00;;;2.28;;
20306;SDS011;10312;52.434;13.206;2022-07-29T05:17:28;4.35;;;1.70;;
20306;SDS011;10312;52.434;13.206;2022-07-29T05:19:55;8.55;;;2.10;;
20306;SDS011;10312;52.434;13.206;2022-07-29T05:22:21;4.75;;;2.13;;
20306;SDS011;10312;52.434;13.206;2022-07-29T05:24:48;5.07;;;2.40;;
20306;SDS011;10312;52.434;13.206;2022-07-29T05:27:15;6.28;;;2.47;;
20306;SDS011;10312;52.434;13.206;2022-07-29T05:29:42;6.13;;;1.90;;
20306;SDS011;10312;52.434;13.206;2022-07-29T05:32:14;5.43;;;2.00;;
20306;SDS011;10312;52.434;13.206;2022-07-29T05:34:41;6.22;;;2.10;;
20306;SDS011;10312;52.434;13.206;2022-07-29T05:37:15;4.72;;;2.38;;
20306;SDS011;10312;52.434;13.206;2022-07-29T05:39:42;5.38;;;2.38;;
20306;SDS011;10312;52.434;13.206;2022-07-29T05:42:16;5.60;;;2.15;;
20306;SDS011;10312;52.434;13.206;2022-07-29T05:44:42;5.68;;;2.40;;
20306;SDS011;10312;52.434;13.206;2022-07-29T05:47:09;5.43;;;2.20;;
20306;SDS011;10312;52.434;13.206;2022-07-29T05:49:36;5.10;;;2.08;;
20306;SDS011;10312;52.434;13.206;2022-07-29T05:52:03;6.55;;;2.33;;
20306;SDS011;10312;52.434;13.206;2022-07-29T05:54:30;6.20;;;2.05;;
20306;SDS011;10312;52.434;13.206;2022-07-29T05:56:57;8.18;;;2.42;;
20306;SDS011;10312;52.434;13.206;2022-07-29T05:59:24;5.13;;;2.15;;
20306;SDS011;10312;52.434;13.206;2022-07-29T06:01:57;9.43;;;2.45;;
20306;SDS011;10312;52.434;13.206;2022-07-29T06:04:25;8.10;;;2.08;;
20306;SDS011;10312;52.434;13.206;2022-07-29T06:06:52;9.27;;;2.42;;
20306;SDS011;10312;52.434;13.206;2022-07-29T06:09:18;6.57;;;1.90;;
20306;SDS011;10312;52.434;13.206;2022-07-29T06:11:45;5.60;;;2.30;;
20306;SDS011;10312;52.434;13.206;2022-07-29T06:14:12;7.72;;;2.17;;
20306;SDS011;10312;52.434;13.206;2022-07-29T06:16:40;3.05;;;1.77;;
20306;SDS011;10312;52.434;13.206;2022-07-29T06:19:07;3.58;;;2.22;;
20306;SDS011;10312;52.434;13.206;2022-07-29T06:21:35;5.82;;;2.38;;
20306;SDS011;10312;52.434;13.206;2022-07-29T06:24:07;5.85;;;2.05;;
20306;SDS011;10312;52.434;13.206;2022-07-29T06:26:34;6.45;;;2.10;;
20306;SDS011;10312;52.434;13.206;2022-07-29T06:29:05;8.27;;;2.53;;
20306;SDS011;10312;52.434;13.206;2022-07-29T06:31:32;6.60;;;1.90;;
20306;SDS011;10312;52.434;13.206;2022-07-29T06:33:59;6.38;;;2.00;;
20306;SDS011;10312;52.434;13.206;2022-07-29T06:36:26;6.65;;;2.08;;
20306;SDS011;10312;52.434;13.206;2022-07-29T06:38:53;6.57;;;2.17;;
20306;SDS011;10312;52.434;13.206;2022-07-29T06:41:21;4.05;;;1.92;;
20306;SDS011;10312;52.434;13.206;2022-07-29T06:43:49;9.43;;;2.70;;
20306;SDS011;10312;52.434;13.206;2022-07-29T06:46:21;14.60;;;2.75;;
20306;SDS011;10312;52.434;13.206;2022-07-29T06:48:49;6.05;;;2.55;;
20306;SDS011;10312;52.434;13.206;2022-07-29T06:51:16;14.40;;;2.40;;
20306;SDS011;10312;52.434;13.206;2022-07-29T06:53:49;5.60;;;1.80;;
20306;SDS011;10312;52.434;13.206;2022-07-29T06:56:31;5.97;;;2.22;;
20306;SDS011;10312;52.434;13.206;2022-07-29T06:59:05;5.47;;;2.10;;
20306;SDS011;10312;52.434;13.206;2022-07-29T07:01:32;6.53;;;2.08;;
20306;SDS011;10312;52.434;13.206;2022-07-29T07:03:59;7.10;;;2.15;;
20306;SDS011;10312;52.434;13.206;2022-07-29T07:06:26;9.02;;;2.00;;
20306;SDS011;10312;52.434;13.206;2022-07-29T07:08:53;5.38;;;1.88;;
20306;SDS011;10312;52.434;13.206;2022-07-29T07:11:20;6.55;;;2.17;;
20306;SDS011;10312;52.434;13.206;2022-07-29T07:13:47;12.35;;;2.25;;
20306;SDS011;10312;52.434;13.206;2022-07-29T07:16:14;10.98;;;2.22;;
20306;SDS011;10312;52.434;13.206;2022-07-29T07:18:41;8.18;;;2.60;;
20306;SDS011;10312;52.434;13.206;2022-07-29T07:21:07;3.63;;;1.88;;
20306;SDS011;10312;52.434;13.206;2022-07-29T07:23:34;7.32;;;2.25;;
20306;SDS011;10312;52.434;13.206;2022-07-29T07:26:01;7.28;;;1.90;;
20306;SDS011;10312;52.434;13.206;2022-07-29T07:28:29;6.15;;;2.40;;
20306;SDS011;10312;52.434;13.206;2022-07-29T07:30:57;5.82;;;1.85;;
20306;SDS011;10312;52.434;13.206;2022-07-29T07:33:24;5.68;;;2.08;;
20306;SDS011;10312;52.434;13.206;2022-07-29T07:35:51;5.60;;;2.30;;
20306;SDS011;10312;52.434;13.206;2022-07-29T07:38:18;5.90;;;2.20;;
20306;SDS011;10312;52.434;13.206;2022-07-29T07:40:44;5.30;;;1.92;;
20306;SDS011;10312;52.434;13.206;2022-07-29T07:43:12;5.88;;;1.80;;
20306;SDS011;10312;52.434;13.206;2022-07-29T07:45:39;4.72;;;2.08;;
20306;SDS011;10312;52.434;13.206;2022-07-29T07:48:06;6.22;;;1.80;;
20306;SDS011;10312;52.434;13.206;2022-07-29T07:50:33;9.30;;;2.13;;
20306;SDS011;10312;52.434;13.206;2022-07-29T07:53:00;6.95;;;2.08;;
20306;SDS011;10312;52.434;13.206;2022-07-29T07:55:28;9.95;;;2.00;;
20306;SDS011;10312;52.434;13.206;2022-07-29T07:58:15;9.80;;;1.80;;
20306;SDS011;10312;52.434;13.206;2022-07-29T08:00:42;4.28;;;1.80;;
20306;SDS011;10312;52.434;13.206;2022-07-29T08:03:09;36.95;;;3.22;;
20306;SDS011;10312;52.434;13.206;2022-07-29T08:05:42;3.42;;;1.60;;
20306;SDS011;10312;52.434;13.206;2022-07-29T08:08:09;4.90;;;1.73;;
20306;SDS011;10312;52.434;13.206;2022-07-29T08:10:36;6.25;;;1.48;;
20306;SDS011;10312;52.434;13.206;2022-07-29T08:13:22;4.97;;;1.40;;
20306;SDS011;10312;52.434;13.206;2022-07-29T08:15:54;8.73;;;1.83;;
20306;SDS011;10312;52.434;13.206;2022-07-29T08:18:25;6.28;;;1.40;;
20306;SDS011;10312;52.434;13.206;2022-07-29T08:20:57;6.63;;;1.35;;
20306;SDS011;10312;52.434;13.206;2022-07-29T08:23:24;9.10;;;1.85;;
20306;SDS011;10312;52.434;13.206;2022-07-29T08:26:12;6.85;;;1.52;;
20306;SDS011;10312;52.434;13.206;2022-07-29T08:28:41;6.15;;;1.30;;
20306;SDS011;10312;52.434;13.206;2022-07-29T08:31:12;2.85;;;1.42;;
20306;SDS011;10312;52.434;13.206;2022-07-29T08:33:40;2.63;;;1.35;;
20306;SDS011;10312;52.434;13.206;2022-07-29T08:36:10;3.63;;;1.30;;
20306;SDS011;10312;52.434;13.206;2022-07-29T08:38:37;5.43;;;1.35;;
20306;SDS011;10312;52.434;13.206;2022-07-29T08:41:03;3.15;;;1.27;;
20306;SDS011;10312;52.434;13.206;2022-07-29T08:43:30;11.85;;;1.77;;
20306;SDS011;10312;52.434;13.206;2022-07-29T08:45:58;6.60;;;1.52;;
20306;SDS011;10312;52.434;13.206;2022-07-29T08:48:25;3.50;;;1.33;;
20306;SDS011;10312;52.434;13.206;2022-07-29T08:50:52;2.85;;;1.35;;
20306;SDS011;10312;52.434;13.206;2022-07-29T08:53:21;4.63;;;1.48;;
20306;SDS011;10312;52.434;13.206;2022-07-29T08:55:50;3.80;;;1.30;;
20306;SDS011;10312;52.434;13.206;2022-07-29T08:58:17;2.70;;;1.25;;
20306;SDS011;10312;52.434;13.206;2022-07-29T09:00:52;3.40;;;1.10;;
20306;SDS011;10312;52.434;13.206;2022-07-29T09:03:22;3.83;;;1.45;;
20306;SDS011;10312;52.434;13.206;2022-07-29T09:05:51;5.18;;;1.40;;
20306;SDS011;10312;52.434;13.206;2022-07-29T09:08:18;3.35;;;1.40;;
20306;SDS011;10312;52.434;13.206;2022-07-29T09:10:45;9.00;;;1.52;;
20306;SDS011;10312;52.434;13.206;2022-07-29T09:13:12;3.75;;;1.30;;
20306;SDS011;10312;52.434;13.206;2022-07-29T09:15:38;3.45;;;1.05;;
20306;SDS011;10312;52.434;13.206;2022-07-29T09:18:05;8.57;;;1.27;;
20306;SDS011;10312;52.434;13.206;2022-07-29T09:20:32;2.70;;;1.35;;
20306;SDS011;10312;52.434;13.206;2022-07-29T09:23:17;4.68;;;1.17;;
20306;SDS011;10312;52.434;13.206;2022-07-29T09:25:50;2.53;;;1.17;;
20306;SDS011;10312;52.434;13.206;2022-07-29T09:28:17;3.50;;;1.20;;
20306;SDS011;10312;52.434;13.206;2022-07-29T09:30:56;8.23;;;1.33;;
20306;SDS011;10312;52.434;13.206;2022-07-29T09:33:30;3.78;;;1.45;;
20306;SDS011;10312;52.434;13.206;2022-07-29T09:35:59;3.22;;;1.30;;
20306;SDS011;10312;52.434;13.206;2022-07-29T09:38:31;3.58;;;1.30;;
20306;SDS011;10312;52.434;13.206;2022-07-29T09:41:00;4.38;;;1.40;;
20306;SDS011;10312;52.434;13.206;2022-07-29T09:43:32;3.80;;;1.13;;
20306;SDS011;10312;52.434;13.206;2022-07-29T09:46:12;6.07;;;1.40;;
20306;SDS011;10312;52.434;13.206;2022-07-29T09:48:40;6.20;;;1.05;;
20306;SDS011;10312;52.434;13.206;2022-07-29T09:51:19;1.80;;;1.10;;
20306;SDS011;10312;52.434;13.206;2022-07-29T09:53:52;3.00;;;1.20;;
20306;SDS011;10312;52.434;13.206;2022-07-29T09:56:18;3.30;;;1.23;;
20306;SDS011;10312;52.434;13.206;2022-07-29T09:58:45;4.30;;;1.33;;
20306;SDS011;10312;52.434;13.206;2022-07-29T10:01:12;3.03;;;1.20;;
20306;SDS011;10312;52.434;13.206;2022-07-29T10:03:52;5.15;;;1.10;;
20306;SDS011;10312;52.434;13.206;2022-07-29T10:06:19;2.88;;;1.30;;
20306;SDS011;10312;52.434;13.206;2022-07-29T10:08:46;5.43;;;1.38;;
20306;SDS011;10312;52.434;13.206;2022-07-29T10:11:14;3.13;;;1.10;;
20306;SDS011;10312;52.434;13.206;2022-07-29T10:13:43;4.65;;;1.17;;
20306;SDS011;10312;52.434;13.206;2022-07-29T10:16:11;3.55;;;1.67;;
20306;SDS011;10312;52.434;13.206;2022-07-29T10:18:40;2.88;;;1.38;;
20306;SDS011;10312;52.434;13.206;2022-07-29T10:21:07;3.10;;;1.10;;
20306;SDS011;10312;52.434;13.206;2022-07-29T10:23:34;2.60;;;1.08;;
20306;SDS011;10312;52.434;13.206;2022-07-29T10:26:12;4.45;;;1.08;;
20306;SDS011;10312;52.434;13.206;2022-07-29T10:28:39;3.75;;;1.00;;
20306;SDS011;10312;52.434;13.206;2022-07-29T10:31:06;2.70;;;1.20;;
20306;SDS011;10312;52.434;13.206;2022-07-29T10:36:43;6.35;;;1.10;;
20306;SDS011;10312;52.434;13.206;2022-07-29T10:39:24;3.95;;;1.27;;
20306;SDS011;10312;52.434;13.206;2022-07-29T10:42:20;3.45;;;1.20;;
20306;SDS011;10312;52.434;13.206;2022-07-29T10:45:00;9.13;;;1.50;;
20306;SDS011;10312;52.434;13.206;2022-07-29T10:47:29;4.25;;;1.08;;
20306;SDS011;10312;52.434;13.206;2022-07-29T10:49:57;2.70;;;1.05;;
20306;SDS011;10312;52.434;13.206;2022-07-29T10:58:19;4.82;;;1.40;;
20306;SDS011;10312;52.434;13.206;2022-07-29T11:00:49;5.65;;;1.10;;
20306;SDS011;10312;52.434;13.206;2022-07-29T11:06:15;3.25;;;1.40;;
20306;SDS011;10312;52.434;13.206;2022-07-29T11:09:15;4.13;;;0.90;;
20306;SDS011;10312;52.434;13.206;2022-07-29T11:11:50;2.63;;;1.25;;
20306;SDS011;10312;52.434;13.206;2022-07-29T11:14:20;5.20;;;1.38;;
20306;SDS011;10312;52.434;13.206;2022-07-29T11:17:21;2.83;;;1.10;;
20306;SDS011;10312;52.434;13.206;2022-07-29T11:19:50;3.63;;;1.67;;
20306;SDS011;10312;52.434;13.206;2022-07-29T11:22:33;5.85;;;1.25;;
20306;SDS011;10312;52.434;13.206;2022-07-29T11:25:14;4.63;;;1.20;;
20306;SDS011;10312;52.434;13.206;2022-07-29T11:28:12;4.38;;;1.20;;
20306;SDS011;10312;52.434;13.206;2022-07-29T11:30:50;2.53;;;1.58;;
20306;SDS011;10312;52.434;13.206;2022-07-29T11:33:28;4.70;;;1.60;;
20306;SDS011;10312;52.434;13.206;2022-07-29T11:36:16;3.25;;;1.30;;
20306;SDS011;10312;52.434;13.206;2022-07-29T11:38:43;3.58;;;1.25;;
20306;SDS011;10312;52.434;13.206;2022-07-29T11:43:46;4.25;;;1.30;;
20306;SDS011;10312;52.434;13.206;2022-07-29T11:49:10;5.45;;;1.20;;
20306;SDS011;10312;52.434;13.206;2022-07-29T11:51:40;15.30;;;2.40;;
20306;SDS011;10312;52.434;13.206;2022-07-29T11:54:13;4.45;;;1.35;;
20306;SDS011;10312;52.434;13.206;2022-07-29T11:56:52;2.13;;;1.10;;
20306;SDS011;10312;52.434;13.206;2022-07-29T11:59:19;2.42;;;1.27;;
20306;SDS011;10312;52.434;13.206;2022-07-29T12:01:54;9.30;;;1.42;;
20306;SDS011;10312;52.434;13.206;2022-07-29T12:04:51;5.30;;;1.45;;
20306;SDS011;10312;52.434;13.206;2022-07-29T12:07:40;4.85;;;1.45;;
20306;SDS011;10312;52.434;13.206;2022-07-29T12:10:12;2.20;;;1.10;;
20306;SDS011;10312;52.434;13.206;2022-07-29T12:12:55;3.55;;;1.60;;
20306;SDS011;10312;52.434;13.206;2022-07-29T12:15:22;3.50;;;1.60;;
20306;SDS011;10312;52.434;13.206;2022-07-29T12:18:11;4.75;;;1.70;;
20306;SDS011;10312;52.434;13.206;2022-07-29T12:20:43;2.67;;;1.58;;
20306;SDS011;10312;52.434;13.206;2022-07-29T12:23:11;3.42;;;1.70;;
20306;SDS011;10312;52.434;13.206;2022-07-29T12:25:42;4.13;;;1.50;;
20306;SDS011;10312;52.434;13.206;2022-07-29T12:28:15;2.80;;;1.58;;
20306;SDS011;10312;52.434;13.206;2022-07-29T12:30:53;9.18;;;1.92;;
20306;SDS011;10312;52.434;13.206;2022-07-29T12:35:51;2.97;;;1.73;;
20306;SDS011;10312;52.434;13.206;2022-07-29T12:38:40;2.72;;;1.75;;
20306;SDS011;10312;52.434;13.206;2022-07-29T12:41:07;4.50;;;1.98;;
20306;SDS011;10312;52.434;13.206;2022-07-29T12:43:34;6.82;;;2.80;;
20306;SDS011;10312;52.434;13.206;2022-07-29T12:46:11;5.78;;;1.60;;
20306;SDS011;10312;52.434;13.206;2022-07-29T12:48:40;4.65;;;1.85;;
20306;SDS011;10312;52.434;13.206;2022-07-29T12:51:08;7.05;;;1.70;;
20306;SDS011;10312;52.434;13.206;2022-07-29T12:53:38;4.85;;;1.70;;
20306;SDS011;10312;52.434;13.206;2022-07-29T12:56:05;4.07;;;1.52;;
20306;SDS011;10312;52.434;13.206;2022-07-29T12:58:52;4.10;;;1.70;;
20306;SDS011;10312;52.434;13.206;2022-07-29T13:01:20;4.57;;;1.55;;
20306;SDS011;10312;52.434;13.206;2022-07-29T13:06:30;4.53;;;1.60;;
20306;SDS011;10312;52.434;13.206;2022-07-29T13:11:44;4.07;;;2.50;;
20306;SDS011;10312;52.434;13.206;2022-07-29T13:14:28;2.15;;;1.58;;
20306;SDS011;10312;52.434;13.206;2022-07-29T13:19:36;4.68;;;1.80;;
20306;SDS011;10312;52.434;13.206;2022-07-29T13:22:07;7.50;;;1.80;;
20306;SDS011;10312;52.434;13.206;2022-07-29T13:24:44;6.30;;;1.70;;
20306;SDS011;10312;52.434;13.206;2022-07-29T13:27:17;3.78;;;1.60;;
20306;SDS011;10312;52.434;13.206;2022-07-29T13:29:45;3.85;;;1.80;;
20306;SDS011;10312;52.434;13.206;2022-07-29T13:32:12;7.32;;;2.33;;
20306;SDS011;10312;52.434;13.206;2022-07-29T13:34:39;2.55;;;1.63;;
20306;SDS011;10312;52.434;13.206;2022-07-29T13:37:07;5.45;;;1.70;;
20306;SDS011;10312;52.434;13.206;2022-07-29T13:39:34;3.45;;;1.90;;
20306;SDS011;10312;52.434;13.206;2022-07-29T13:42:01;3.70;;;2.05;;
20306;SDS011;10312;52.434;13.206;2022-07-29T13:44:28;3.15;;;1.98;;
20306;SDS011;10312;52.434;13.206;2022-07-29T13:46:54;4.22;;;1.80;;
20306;SDS011;10312;52.434;13.206;2022-07-29T13:49:22;6.57;;;2.10;;
20306;SDS011;10312;52.434;13.206;2022-07-29T13:51:49;8.05;;;2.33;;
20306;SDS011;10312;52.434;13.206;2022-07-29T13:54:16;7.80;;;3.03;;
20306;SDS011;10312;52.434;13.206;2022-07-29T13:56:44;7.38;;;2.10;;
20306;SDS011;10312;52.434;13.206;2022-07-29T13:59:11;5.05;;;2.10;;
20306;SDS011;10312;52.434;13.206;2022-07-29T14:01:39;4.18;;;1.88;;
20306;SDS011;10312;52.434;13.206;2022-07-29T14:04:09;8.95;;;2.00;;
20306;SDS011;10312;52.434;13.206;2022-07-29T14:06:37;8.27;;;2.00;;
20306;SDS011;10312;52.434;13.206;2022-07-29T14:09:05;2.95;;;1.65;;
20306;SDS011;10312;52.434;13.206;2022-07-29T14:11:32;4.53;;;1.92;;
20306;SDS011;10312;52.434;13.206;2022-07-29T14:13:59;3.70;;;1.90;;
20306;SDS011;10312;52.434;13.206;2022-07-29T14:16:27;3.38;;;1.77;;
20306;SDS011;10312;52.434;13.206;2022-07-29T14:18:54;5.13;;;1.90;;
20306;SDS011;10312;52.434;13.206;2022-07-29T14:21:20;5.75;;;1.77;;
20306;SDS011;10312;52.434;13.206;2022-07-29T14:23:47;4.05;;;1.98;;
20306;SDS011;10312;52.434;13.206;2022-07-29T14:26:14;3.05;;;1.55;;
20306;SDS011;10312;52.434;13.206;2022-07-29T14:28:49;3.45;;;1.80;;
20306;SDS011;10312;52.434;13.206;2022-07-29T14:31:16;4.57;;;1.70;;
20306;SDS011;10312;52.434;13.206;2022-07-29T14:33:43;2.92;;;1.50;;
20306;SDS011;10312;52.434;13.206;2022-07-29T14:36:14;7.55;;;1.80;;
20306;SDS011;10312;52.434;13.206;2022-07-29T14:38:41;5.97;;;2.10;;
20306;SDS011;10312;52.434;13.206;2022-07-29T14:41:08;4.97;;;2.00;;
20306;SDS011;10312;52.434;13.206;2022-07-29T14:43:35;5.40;;;1.77;;
20306;SDS011;10312;52.434;13.206;2022-07-29T14:46:02;6.90;;;2.10;;
20306;SDS011;10312;52.434;13.206;2022-07-29T14:48:33;4.10;;;1.50;;
20306;SDS011;10312;52.434;13.206;2022-07-29T14:51:00;3.72;;;2.05;;
20306;SDS011;10312;52.434;13.206;2022-07-29T14:53:30;7.15;;;2.10;;
20306;SDS011;10312;52.434;13.206;2022-07-29T14:55:57;3.83;;;1.70;;
20306;SDS011;10312;52.434;13.206;2022-07-29T14:58:44;4.10;;;1.75;;
20306;SDS011;10312;52.434;13.206;2022-07-29T15:01:17;7.78;;;1.90;;
20306;SDS011;10312;52.434;13.206;2022-07-29T15:03:44;3.40;;;2.00;;
20306;SDS011;10312;52.434;13.206;2022-07-29T15:06:11;5.22;;;2.03;;
20306;SDS011;10312;52.434;13.206;2022-07-29T15:08:38;4.15;;;2.00;;
20306;SDS011;10312;52.434;13.206;2022-07-29T15:11:04;5.15;;;2.15;;
20306;SDS011;10312;52.434;13.206;2022-07-29T15:13:32;4.90;;;1.95;;
20306;SDS011;10312;52.434;13.206;2022-07-29T15:15:59;5.45;;;1.90;;
20306;SDS011;10312;52.434;13.206;2022-07-29T15:18:26;3.72;;;1.80;;
20306;SDS011;10312;52.434;13.206;2022-07-29T15:20:54;4.03;;;1.40;;
20306;SDS011;10312;52.434;13.206;2022-07-29T15:23:22;5.05;;;1.92;;
20306;SDS011;10312;52.434;13.206;2022-07-29T15:25:49;2.58;;;1.75;;
20306;SDS011;10312;52.434;13.206;2022-07-29T15:28:16;3.47;;;2.10;;
20306;SDS011;10312;52.434;13.206;2022-07-29T15:30:45;3.20;;;1.98;;
20306;SDS011;10312;52.434;13.206;2022-07-29T15:33:12;4.13;;;1.77;;
20306;SDS011;10312;52.434;13.206;2022-07-29T15:35:39;2.58;;;1.45;;